sensor_id;sensor_type;location;lat;lon;timestamp;pressure;altitude;pressure_sealevel;temperature;humidity
62293;BME280;48292;47.724;18.992;2022-08-06T03:36:03;97128.2;;;20.48;49.59
62293;BME280;48292;47.724;18.992;2022-08-06T03:41:10;97128.2;;;20.48;49.59
62293;BME280;48292;47.724;18.992;2022-08-06T03:46:20;97126.84;;;20.74;49.46
62293;BME280;48292;47.724;18.992;2022-08-06T03:51:25;97126.84;;;20.74;49.46
62293;BME280;48292;47.724;18.992;2022-08-06T03:56:31;97123.47;;;20.7;48.44
62293;BME280;48292;47.724;18.992;2022-08-06T04:01:36;97126.3;;;20.46;54.32
62293;BME280;48292;47.724;18.992;2022-08-06T04:06:42;97126.3;;;20.46;54.32
62293;BME280;48292;47.724;18.992;2022-08-06T04:11:49;97138.79;;;21.11;49.23
62293;BME280;48292;47.724;18.992;2022-08-06T04:16:55;97138.79;;;21.11;49.23
62293;BME280;48292;47.724;18.992;2022-08-06T04:21:59;97154.32;;;20.83;53.42
62293;BME280;48292;47.724;18.992;2022-08-06T04:27:05;97154.32;;;20.83;53.42
62293;BME280;48292;47.724;18.992;2022-08-06T04:32:12;97162.47;;;20.67;54.74
62293;BME280;48292;47.724;18.992;2022-08-06T04:37:18;97162.47;;;20.67;54.74
62293;BME280;48292;47.724;18.992;2022-08-06T04:42:22;97160.59;;;20.53;56.22
62293;BME280;48292;47.724;18.992;2022-08-06T04:47:26;97160.59;;;20.53;56.22
62293;BME280;48292;47.724;18.992;2022-08-06T04:52:33;97167.41;;;20.4;59.27
62293;BME280;48292;47.724;18.992;2022-08-06T04:57:39;97167.41;;;20.4;59.27
62293;BME280;48292;47.724;18.992;2022-08-06T05:02:44;97162.53;;;20.64;52.15
62293;BME280;48292;47.724;18.992;2022-08-06T05:07:50;97168.12;;;21.57;48.01
62293;BME280;48292;47.724;18.992;2022-08-06T05:12:57;97168.12;;;21.57;48.01
62293;BME280;48292;47.724;18.992;2022-08-06T05:18:00;97166.44;;;21.88;48.32
62293;BME280;48292;47.724;18.992;2022-08-06T05:23:06;97166.44;;;21.88;48.32
62293;BME280;48292;47.724;18.992;2022-08-06T05:28:12;97181.73;;;22.09;46.84
62293;BME280;48292;47.724;18.992;2022-08-06T05:33:24;97181.73;;;22.09;46.84
62293;BME280;48292;47.724;18.992;2022-08-06T05:38:38;97183.53;;;22.27;47.79
62293;BME280;48292;47.724;18.992;2022-08-06T05:43:45;97183.53;;;22.27;47.79
62293;BME280;48292;47.724;18.992;2022-08-06T05:48:54;97187.63;;;22.7;47.01
62293;BME280;48292;47.724;18.992;2022-08-06T05:53:58;97187.63;;;22.7;47.01
62293;BME280;48292;47.724;18.992;2022-08-06T05:59:06;97194.84;;;23.15;45.95
62293;BME280;48292;47.724;18.992;2022-08-06T06:04:13;97194.84;;;23.15;45.95
62293;BME280;48292;47.724;18.992;2022-08-06T06:09:18;97208.42;;;23.43;44.2
62293;BME280;48292;47.724;18.992;2022-08-06T06:14:35;97212.12;;;23.46;45.41
62293;BME280;48292;47.724;18.992;2022-08-06T06:19:32;97212.12;;;23.46;45.41
62293;BME280;48292;47.724;18.992;2022-08-06T06:24:46;97217.41;;;23.45;46.6
62293;BME280;48292;47.724;18.992;2022-08-06T06:29:54;97217.41;;;23.45;46.6
62293;BME280;48292;47.724;18.992;2022-08-06T06:35:03;97222.92;;;24.0;47.18
62293;BME280;48292;47.724;18.992;2022-08-06T06:40:10;97222.92;;;24.0;47.18
62293;BME280;48292;47.724;18.992;2022-08-06T06:45:18;97235.2;;;23.73;48.33
62293;BME280;48292;47.724;18.992;2022-08-06T06:50:25;97235.2;;;23.73;48.33
62293;BME280;48292;47.724;18.992;2022-08-06T06:55:30;97238.52;;;23.82;47.46
62293;BME280;48292;47.724;18.992;2022-08-06T07:00:38;97238.52;;;23.82;47.46
62293;BME280;48292;47.724;18.992;2022-08-06T07:05:46;97243.3;;;24.11;45.5
62293;BME280;48292;47.724;18.992;2022-08-06T07:10:52;97252.78;;;24.62;46.4
62293;BME280;48292;47.724;18.992;2022-08-06T07:15:59;97252.78;;;24.62;46.4
62293;BME280;48292;47.724;18.992;2022-08-06T07:21:01;97248.91;;;24.72;44.85
62293;BME280;48292;47.724;18.992;2022-08-06T07:26:05;97248.91;;;24.72;44.85
62293;BME280;48292;47.724;18.992;2022-08-06T07:31:08;97255.56;;;26.35;41.09
62293;BME280;48292;47.724;18.992;2022-08-06T07:36:16;97255.56;;;26.35;41.09
62293;BME280;48292;47.724;18.992;2022-08-06T07:41:19;97255.17;;;27.04;39.31
62293;BME280;48292;47.724;18.992;2022-08-06T07:46:26;97255.17;;;27.04;39.31
62293;BME280;48292;47.724;18.992;2022-08-06T07:51:32;97250.16;;;27.57;37.55
62293;BME280;48292;47.724;18.992;2022-08-06T07:56:38;97250.16;;;27.57;37.55
62293;BME280;48292;47.724;18.992;2022-08-06T08:01:45;97259.82;;;27.77;37.11
62293;BME280;48292;47.724;18.992;2022-08-06T08:06:50;97259.82;;;27.77;37.11
62293;BME280;48292;47.724;18.992;2022-08-06T08:11:52;97257.02;;;28.05;36.09
62293;BME280;48292;47.724;18.992;2022-08-06T08:16:59;97257.02;;;28.05;36.09
62293;BME280;48292;47.724;18.992;2022-08-06T08:22:02;97265.75;;;28.06;36.26
62293;BME280;48292;47.724;18.992;2022-08-06T08:27:07;97261.13;;;29.29;34.11
62293;BME280;48292;47.724;18.992;2022-08-06T08:32:13;97261.13;;;29.29;34.11
62293;BME280;48292;47.724;18.992;2022-08-06T08:37:21;97260.81;;;29.99;32.89
62293;BME280;48292;47.724;18.992;2022-08-06T08:42:25;97260.81;;;29.99;32.89
62293;BME280;48292;47.724;18.992;2022-08-06T08:47:39;97263.48;;;30.06;32.89
62293;BME280;48292;47.724;18.992;2022-08-06T08:52:49;97263.48;;;30.06;32.89
62293;BME280;48292;47.724;18.992;2022-08-06T08:57:51;97275.81;;;30.92;31.63
62293;BME280;48292;47.724;18.992;2022-08-06T09:02:58;97275.81;;;30.92;31.63
62293;BME280;48292;47.724;18.992;2022-08-06T09:08:02;97269.64;;;31.18;30.91
62293;BME280;48292;47.724;18.992;2022-08-06T09:13:03;97269.64;;;31.18;30.91
62293;BME280;48292;47.724;18.992;2022-08-06T09:18:09;97259.27;;;33.62;26.87
62293;BME280;48292;47.724;18.992;2022-08-06T09:23:18;97259.27;;;33.62;26.87
62293;BME280;48292;47.724;18.992;2022-08-06T09:28:28;97253.67;;;31.94;28.58
62293;BME280;48292;47.724;18.992;2022-08-06T09:33:30;97255.71;;;33.05;27.56
62293;BME280;48292;47.724;18.992;2022-08-06T09:43:42;97260.73;;;32.17;28.33
62293;BME280;48292;47.724;18.992;2022-08-06T09:48:56;97260.73;;;32.17;28.33
62293;BME280;48292;47.724;18.992;2022-08-06T09:54:03;97268.56;;;32.34;28.92
62293;BME280;48292;47.724;18.992;2022-08-06T09:59:09;97268.56;;;32.34;28.92
62293;BME280;48292;47.724;18.992;2022-08-06T10:04:14;97263.61;;;31.81;29.69
62293;BME280;48292;47.724;18.992;2022-08-06T10:09:18;97263.61;;;31.81;29.69
62293;BME280;48292;47.724;18.992;2022-08-06T10:14:25;97265.72;;;34.48;26.69
62293;BME280;48292;47.724;18.992;2022-08-06T10:19:30;97265.72;;;34.48;26.69
62293;BME280;48292;47.724;18.992;2022-08-06T10:24:36;97264.69;;;33.24;27.82
62293;BME280;48292;47.724;18.992;2022-08-06T10:29:44;97261.58;;;32.34;29.68
62293;BME280;48292;47.724;18.992;2022-08-06T10:34:48;97261.58;;;32.34;29.68
62293;BME280;48292;47.724;18.992;2022-08-06T10:39:54;97261.17;;;33.81;27.4
62293;BME280;48292;47.724;18.992;2022-08-06T10:45:01;97261.17;;;33.81;27.4
62293;BME280;48292;47.724;18.992;2022-08-06T10:50:07;97262.66;;;34.28;27.39
62293;BME280;48292;47.724;18.992;2022-08-06T10:55:13;97262.66;;;34.28;27.39
62293;BME280;48292;47.724;18.992;2022-08-06T11:00:16;97262.53;;;33.61;27.83
62293;BME280;48292;47.724;18.992;2022-08-06T11:05:23;97262.53;;;33.61;27.83
62293;BME280;48292;47.724;18.992;2022-08-06T11:10:31;97257.7;;;32.0;30.83
62293;BME280;48292;47.724;18.992;2022-08-06T11:15:41;97257.7;;;32.0;30.83
62293;BME280;48292;47.724;18.992;2022-08-06T11:20:45;97246.16;;;33.04;29.71
62293;BME280;48292;47.724;18.992;2022-08-06T11:25:48;97246.16;;;33.04;29.71
62293;BME280;48292;47.724;18.992;2022-08-06T11:30:52;97243.79;;;32.58;30.63
62293;BME280;48292;47.724;18.992;2022-08-06T11:35:54;97233.44;;;32.75;30.24
62293;BME280;48292;47.724;18.992;2022-08-06T11:41:07;97233.44;;;32.75;30.24
62293;BME280;48292;47.724;18.992;2022-08-06T11:46:16;97223.09;;;31.58;33.35
62293;BME280;48292;47.724;18.992;2022-08-06T11:56:32;97231.08;;;32.4;33.05
62293;BME280;48292;47.724;18.992;2022-08-06T12:01:45;97231.08;;;32.4;33.05
62293;BME280;48292;47.724;18.992;2022-08-06T12:06:51;97238.29;;;31.57;35.64
62293;BME280;48292;47.724;18.992;2022-08-06T12:11:54;97238.29;;;31.57;35.64
62293;BME280;48292;47.724;18.992;2022-08-06T12:16:57;97233.81;;;31.85;35.75
62293;BME280;48292;47.724;18.992;2022-08-06T12:22:03;97233.81;;;31.85;35.75
62293;BME280;48292;47.724;18.992;2022-08-06T12:27:09;97239.11;;;32.05;35.11
62293;BME280;48292;47.724;18.992;2022-08-06T12:32:19;97239.11;;;32.05;35.11
62293;BME280;48292;47.724;18.992;2022-08-06T12:37:32;97240.48;;;32.64;34.54
62293;BME280;48292;47.724;18.992;2022-08-06T12:42:38;97257.2;;;32.06;35.1
62293;BME280;48292;47.724;18.992;2022-08-06T12:47:45;97257.2;;;32.06;35.1
62293;BME280;48292;47.724;18.992;2022-08-06T12:57:56;97255.66;;;32.72;33.48
62293;BME280;48292;47.724;18.992;2022-08-06T13:03:06;97265.58;;;32.42;34.32
62293;BME280;48292;47.724;18.992;2022-08-06T13:08:11;97265.58;;;32.42;34.32
62293;BME280;48292;47.724;18.992;2022-08-06T13:13:21;97261.33;;;31.79;35.18
62293;BME280;48292;47.724;18.992;2022-08-06T13:18:27;97261.33;;;31.79;35.18
62293;BME280;48292;47.724;18.992;2022-08-06T13:23:34;97266.05;;;31.64;35.36
62293;BME280;48292;47.724;18.992;2022-08-06T13:28:38;97266.05;;;31.64;35.36
62293;BME280;48292;47.724;18.992;2022-08-06T13:38:50;97273.27;;;31.32;36.45
62293;BME280;48292;47.724;18.992;2022-08-06T13:43:54;97273.27;;;31.32;36.45
62293;BME280;48292;47.724;18.992;2022-08-06T13:48:59;97291.97;;;30.32;38.27
62293;BME280;48292;47.724;18.992;2022-08-06T13:54:07;97291.97;;;30.32;38.27
62293;BME280;48292;47.724;18.992;2022-08-06T13:59:13;97278.62;;;30.14;38.78
62293;BME280;48292;47.724;18.992;2022-08-06T14:04:21;97278.62;;;30.14;38.78
62293;BME280;48292;47.724;18.992;2022-08-06T14:09:23;97273.97;;;29.96;40.0
62293;BME280;48292;47.724;18.992;2022-08-06T14:14:34;97273.97;;;29.96;40.0
62293;BME280;48292;47.724;18.992;2022-08-06T14:19:36;97260.59;;;31.51;38.49
62293;BME280;48292;47.724;18.992;2022-08-06T14:24:43;97260.59;;;31.51;38.49
62293;BME280;48292;47.724;18.992;2022-08-06T14:29:48;97268.34;;;30.98;37.54
62293;BME280;48292;47.724;18.992;2022-08-06T14:34:54;97268.34;;;30.98;37.54
62293;BME280;48292;47.724;18.992;2022-08-06T14:39:57;97279.44;;;29.68;40.44
62293;BME280;48292;47.724;18.992;2022-08-06T14:45:03;97307.39;;;28.54;43.57
62293;BME280;48292;47.724;18.992;2022-08-06T14:50:05;97307.39;;;28.54;43.57
62293;BME280;48292;47.724;18.992;2022-08-06T14:55:10;97312.44;;;27.67;45.35
62293;BME280;48292;47.724;18.992;2022-08-06T15:00:17;97312.44;;;27.67;45.35
62293;BME280;48292;47.724;18.992;2022-08-06T15:05:23;97315.98;;;28.24;43.96
62293;BME280;48292;47.724;18.992;2022-08-06T15:10:29;97315.98;;;28.24;43.96
62293;BME280;48292;47.724;18.992;2022-08-06T15:15:32;97329.41;;;27.51;45.75
62293;BME280;48292;47.724;18.992;2022-08-06T15:20:38;97329.41;;;27.51;45.75
62293;BME280;48292;47.724;18.992;2022-08-06T15:25:41;97328.29;;;28.68;43.6
62293;BME280;48292;47.724;18.992;2022-08-06T15:30:47;97328.29;;;28.68;43.6
62293;BME280;48292;47.724;18.992;2022-08-06T15:35:49;97328.8;;;28.5;43.36
62293;BME280;48292;47.724;18.992;2022-08-06T15:40:55;97328.8;;;28.5;43.36
62293;BME280;48292;47.724;18.992;2022-08-06T15:45:57;97349.31;;;27.89;44.7
62293;BME280;48292;47.724;18.992;2022-08-06T15:51:05;97349.98;;;27.13;46.49
62293;BME280;48292;47.724;18.992;2022-08-06T15:56:11;97349.98;;;27.13;46.49
62293;BME280;48292;47.724;18.992;2022-08-06T16:01:17;97358.78;;;26.46;48.58
62293;BME280;48292;47.724;18.992;2022-08-06T16:06:23;97358.78;;;26.46;48.58
62293;BME280;48292;47.724;18.992;2022-08-06T16:11:30;97352.06;;;26.57;48.41
62293;BME280;48292;47.724;18.992;2022-08-06T16:16:36;97352.06;;;26.57;48.41
62293;BME280;48292;47.724;18.992;2022-08-06T16:21:38;97363.78;;;26.92;47.68
62293;BME280;48292;47.724;18.992;2022-08-06T16:26:49;97363.78;;;26.92;47.68
62293;BME280;48292;47.724;18.992;2022-08-06T16:31:55;97381.12;;;26.07;49.57
62293;BME280;48292;47.724;18.992;2022-08-06T16:36:58;97381.12;;;26.07;49.57
62293;BME280;48292;47.724;18.992;2022-08-06T16:42:07;97379.22;;;25.79;50.27
62293;BME280;48292;47.724;18.992;2022-08-06T16:47:10;97392.95;;;25.28;51.89
62293;BME280;48292;47.724;18.992;2022-08-06T16:52:14;97392.95;;;25.28;51.89
62293;BME280;48292;47.724;18.992;2022-08-06T16:57:19;97402.0;;;25.13;52.16
62293;BME280;48292;47.724;18.992;2022-08-06T17:02:23;97402.0;;;25.13;52.16
62293;BME280;48292;47.724;18.992;2022-08-06T17:07:25;97413.62;;;24.74;52.92
62293;BME280;48292;47.724;18.992;2022-08-06T17:12:31;97413.62;;;24.74;52.92
62293;BME280;48292;47.724;18.992;2022-08-06T17:17:34;97420.91;;;24.59;53.42
62293;BME280;48292;47.724;18.992;2022-08-06T17:22:40;97420.91;;;24.59;53.42
62293;BME280;48292;47.724;18.992;2022-08-06T17:27:43;97425.69;;;24.36;53.98
62293;BME280;48292;47.724;18.992;2022-08-06T17:32:49;97425.69;;;24.36;53.98
62293;BME280;48292;47.724;18.992;2022-08-06T17:37:56;97433.81;;;24.01;54.81
62293;BME280;48292;47.724;18.992;2022-08-06T17:43:04;97433.81;;;24.01;54.81
62293;BME280;48292;47.724;18.992;2022-08-06T17:48:10;97435.0;;;23.86;55.12
62293;BME280;48292;47.724;18.992;2022-08-06T17:53:15;97440.63;;;23.57;55.76
62293;BME280;48292;47.724;18.992;2022-08-06T17:58:23;97440.63;;;23.57;55.76
62293;BME280;48292;47.724;18.992;2022-08-06T18:03:29;97440.99;;;23.36;56.12
62293;BME280;48292;47.724;18.992;2022-08-06T18:08:35;97440.99;;;23.36;56.12
62293;BME280;48292;47.724;18.992;2022-08-06T18:13:38;97449.98;;;23.13;56.87
62293;BME280;48292;47.724;18.992;2022-08-06T18:18:44;97449.98;;;23.13;56.87
62293;BME280;48292;47.724;18.992;2022-08-06T18:23:48;97458.28;;;22.98;57.22
62293;BME280;48292;47.724;18.992;2022-08-06T18:28:55;97458.28;;;22.98;57.22
62293;BME280;48292;47.724;18.992;2022-08-06T18:34:00;97464.64;;;22.78;57.82
62293;BME280;48292;47.724;18.992;2022-08-06T18:39:10;97464.64;;;22.78;57.82
62293;BME280;48292;47.724;18.992;2022-08-06T18:44:20;97471.05;;;22.56;58.3
62293;BME280;48292;47.724;18.992;2022-08-06T18:49:26;97471.05;;;22.56;58.3
62293;BME280;48292;47.724;18.992;2022-08-06T18:54:32;97488.53;;;22.42;58.35
62293;BME280;48292;47.724;18.992;2022-08-06T18:59:35;97497.83;;;22.19;59.22
62293;BME280;48292;47.724;18.992;2022-08-06T19:04:41;97497.83;;;22.19;59.22
62293;BME280;48292;47.724;18.992;2022-08-06T19:09:47;97510.03;;;21.88;59.13
62293;BME280;48292;47.724;18.992;2022-08-06T19:14:52;97510.03;;;21.88;59.13
62293;BME280;48292;47.724;18.992;2022-08-06T19:19:55;97519.66;;;21.68;59.62
62293;BME280;48292;47.724;18.992;2022-08-06T19:25:01;97519.66;;;21.68;59.62
62293;BME280;48292;47.724;18.992;2022-08-06T19:30:07;97530.12;;;21.38;60.73
62293;BME280;48292;47.724;18.992;2022-08-06T19:35:13;97530.12;;;21.38;60.73
62293;BME280;48292;47.724;18.992;2022-08-06T19:40:19;97521.38;;;21.08;61.16
62293;BME280;48292;47.724;18.992;2022-08-06T19:45:28;97521.38;;;21.08;61.16
62293;BME280;48292;47.724;18.992;2022-08-06T19:50:34;97521.52;;;20.99;61.41
62293;BME280;48292;47.724;18.992;2022-08-06T19:55:37;97521.52;;;20.99;61.41
62293;BME280;48292;47.724;18.992;2022-08-06T20:00:43;97524.11;;;20.79;63.0
62293;BME280;48292;47.724;18.992;2022-08-06T20:05:48;97531.63;;;20.69;62.19
62293;BME280;48292;47.724;18.992;2022-08-06T20:10:54;97531.63;;;20.69;62.19
62293;BME280;48292;47.724;18.992;2022-08-06T20:15:57;97543.17;;;20.49;62.43
62293;BME280;48292;47.724;18.992;2022-08-06T20:21:02;97543.17;;;20.49;62.43
62293;BME280;48292;47.724;18.992;2022-08-06T20:26:04;97551.43;;;20.21;63.2
62293;BME280;48292;47.724;18.992;2022-08-06T20:31:10;97551.43;;;20.21;63.2
62293;BME280;48292;47.724;18.992;2022-08-06T20:36:16;97555.51;;;20.01;63.94
62293;BME280;48292;47.724;18.992;2022-08-06T20:41:24;97555.51;;;20.01;63.94
62293;BME280;48292;47.724;18.992;2022-08-06T20:46:30;97561.16;;;19.89;63.87
62293;BME280;48292;47.724;18.992;2022-08-06T20:51:36;97561.16;;;19.89;63.87
62293;BME280;48292;47.724;18.992;2022-08-06T20:56:41;97561.16;;;19.89;63.87
62293;BME280;48292;47.724;18.992;2022-08-06T21:01:44;97561.16;;;19.89;63.87
62293;BME280;48292;47.724;18.992;2022-08-06T21:06:50;97561.16;;;19.89;63.87
62293;BME280;48292;47.724;18.992;2022-08-06T21:11:57;97561.16;;;19.89;63.87
62293;BME280;48292;47.724;18.992;2022-08-06T21:17:02;97561.16;;;19.89;63.87
62293;BME280;48292;47.724;18.992;2022-08-06T21:22:08;97561.16;;;19.89;63.87
62293;BME280;48292;47.724;18.992;2022-08-06T21:27:11;97561.16;;;19.89;63.87
62293;BME280;48292;47.724;18.992;2022-08-06T21:32:15;97561.16;;;19.89;63.87
62293;BME280;48292;47.724;18.992;2022-08-06T21:37:20;97561.16;;;19.89;63.87
62293;BME280;48292;47.724;18.992;2022-08-06T21:42:26;97561.16;;;19.89;63.87
